sensor_id;sensor_type;location;lat;lon;timestamp;temperature;humidity
42835;DHT22;29335;50.526;30.458;2022-10-31T00:00:57;10.40;99.90
42835;DHT22;29335;50.526;30.458;2022-10-31T00:03:22;10.20;99.90
42835;DHT22;29335;50.526;30.458;2022-10-31T00:05:49;10.10;99.90
42835;DHT22;29335;50.526;30.458;2022-10-31T00:08:16;10.90;99.90
42835;DHT22;29335;50.526;30.458;2022-10-31T00:10:43;10.30;99.90
42835;DHT22;29335;50.526;30.458;2022-10-31T00:13:09;10.10;99.90
42835;DHT22;29335;50.526;30.458;2022-10-31T00:15:36;10.20;99.90
42835;DHT22;29335;50.526;30.458;2022-10-31T00:18:02;10.10;99.90
42835;DHT22;29335;50.526;30.458;2022-10-31T00:20:28;10.20;99.90
42835;DHT22;29335;50.526;30.458;2022-10-31T00:22:57;10.10;99.90
42835;DHT22;29335;50.526;30.458;2022-10-31T00:25:24;11.50;99.90
42835;DHT22;29335;50.526;30.458;2022-10-31T00:27:49;10.10;99.90
42835;DHT22;29335;50.526;30.458;2022-10-31T00:30:15;10.10;99.90
42835;DHT22;29335;50.526;30.458;2022-10-31T00:32:40;10.20;99.90
42835;DHT22;29335;50.526;30.458;2022-10-31T00:35:06;10.20;99.90
42835;DHT22;29335;50.526;30.458;2022-10-31T00:37:32;10.10;99.90
42835;DHT22;29335;50.526;30.458;2022-10-31T00:39:57;10.10;99.90
42835;DHT22;29335;50.526;30.458;2022-10-31T00:42:23;10.00;99.90
42835;DHT22;29335;50.526;30.458;2022-10-31T00:44:49;9.90;99.90
42835;DHT22;29335;50.526;30.458;2022-10-31T00:47:14;9.90;99.90
42835;DHT22;29335;50.526;30.458;2022-10-31T00:49:40;10.00;99.90
42835;DHT22;29335;50.526;30.458;2022-10-31T00:52:05;10.10;99.90
42835;DHT22;29335;50.526;30.458;2022-10-31T00:54:31;10.10;99.90
42835;DHT22;29335;50.526;30.458;2022-10-31T00:56:57;10.00;99.90
42835;DHT22;29335;50.526;30.458;2022-10-31T00:59:23;9.90;99.90
42835;DHT22;29335;50.526;30.458;2022-10-31T01:01:48;10.70;99.90
42835;DHT22;29335;50.526;30.458;2022-10-31T01:04:14;10.10;99.90
42835;DHT22;29335;50.526;30.458;2022-10-31T01:06:39;10.00;99.90
42835;DHT22;29335;50.526;30.458;2022-10-31T01:09:05;10.00;99.90
42835;DHT22;29335;50.526;30.458;2022-10-31T01:11:31;10.90;99.90
42835;DHT22;29335;50.526;30.458;2022-10-31T01:13:56;10.00;99.90
42835;DHT22;29335;50.526;30.458;2022-10-31T01:16:24;9.90;99.90
42835;DHT22;29335;50.526;30.458;2022-10-31T01:18:51;10.00;99.90
42835;DHT22;29335;50.526;30.458;2022-10-31T01:23:43;10.00;99.90
42835;DHT22;29335;50.526;30.458;2022-10-31T01:26:29;10.00;99.90
42835;DHT22;29335;50.526;30.458;2022-10-31T01:29:04;10.10;99.90
42835;DHT22;29335;50.526;30.458;2022-10-31T01:31:36;10.40;99.90
42835;DHT22;29335;50.526;30.458;2022-10-31T01:34:02;10.10;99.90
42835;DHT22;29335;50.526;30.458;2022-10-31T01:36:33;10.10;99.90
42835;DHT22;29335;50.526;30.458;2022-10-31T01:39:03;10.30;99.90
42835;DHT22;29335;50.526;30.458;2022-10-31T01:41:31;10.10;99.90
42835;DHT22;29335;50.526;30.458;2022-10-31T01:44:01;10.00;99.90
42835;DHT22;29335;50.526;30.458;2022-10-31T01:46:34;10.30;99.90
42835;DHT22;29335;50.526;30.458;2022-10-31T01:49:11;10.10;99.90
42835;DHT22;29335;50.526;30.458;2022-10-31T01:51:43;10.10;99.90
42835;DHT22;29335;50.526;30.458;2022-10-31T01:54:12;10.00;99.90
42835;DHT22;29335;50.526;30.458;2022-10-31T01:56:42;10.10;99.90
42835;DHT22;29335;50.526;30.458;2022-10-31T01:59:11;10.00;99.90
42835;DHT22;29335;50.526;30.458;2022-10-31T02:01:40;10.00;99.90
42835;DHT22;29335;50.526;30.458;2022-10-31T02:04:06;11.60;99.90
42835;DHT22;29335;50.526;30.458;2022-10-31T02:06:37;10.00;99.90
42835;DHT22;29335;50.526;30.458;2022-10-31T02:09:05;10.00;99.90
42835;DHT22;29335;50.526;30.458;2022-10-31T02:11:31;10.40;99.90
42835;DHT22;29335;50.526;30.458;2022-10-31T02:13:59;9.90;99.90
42835;DHT22;29335;50.526;30.458;2022-10-31T02:16:25;9.90;99.90
42835;DHT22;29335;50.526;30.458;2022-10-31T02:18:51;9.90;99.90
42835;DHT22;29335;50.526;30.458;2022-10-31T02:21:22;9.90;99.90
42835;DHT22;29335;50.526;30.458;2022-10-31T02:29:48;9.90;99.90
42835;DHT22;29335;50.526;30.458;2022-10-31T02:32:25;9.80;99.90
42835;DHT22;29335;50.526;30.458;2022-10-31T02:38:19;9.80;99.90
42835;DHT22;29335;50.526;30.458;2022-10-31T02:52:26;10.10;99.90
42835;DHT22;29335;50.526;30.458;2022-10-31T02:54:52;10.20;99.90
42835;DHT22;29335;50.526;30.458;2022-10-31T02:57:24;10.10;99.90
42835;DHT22;29335;50.526;30.458;2022-10-31T02:59:54;11.80;99.90
42835;DHT22;29335;50.526;30.458;2022-10-31T03:05:07;10.10;99.90
42835;DHT22;29335;50.526;30.458;2022-10-31T03:07:54;10.20;99.90
42835;DHT22;29335;50.526;30.458;2022-10-31T03:10:27;10.20;99.90
42835;DHT22;29335;50.526;30.458;2022-10-31T03:13:14;10.10;99.90
42835;DHT22;29335;50.526;30.458;2022-10-31T03:15:50;10.20;99.90
42835;DHT22;29335;50.526;30.458;2022-10-31T03:19:13;10.20;99.90
42835;DHT22;29335;50.526;30.458;2022-10-31T03:24:19;10.30;99.90
42835;DHT22;29335;50.526;30.458;2022-10-31T03:26:50;10.10;99.90
42835;DHT22;29335;50.526;30.458;2022-10-31T03:29:21;9.80;99.90
42835;DHT22;29335;50.526;30.458;2022-10-31T03:32:00;9.80;99.90
42835;DHT22;29335;50.526;30.458;2022-10-31T03:34:28;10.10;99.90
42835;DHT22;29335;50.526;30.458;2022-10-31T03:36:57;10.30;97.40
42835;DHT22;29335;50.526;30.458;2022-10-31T03:39:23;10.30;96.50
42835;DHT22;29335;50.526;30.458;2022-10-31T03:42:04;11.80;97.40
42835;DHT22;29335;50.526;30.458;2022-10-31T03:44:32;10.00;96.40
42835;DHT22;29335;50.526;30.458;2022-10-31T03:46:58;10.00;95.80
42835;DHT22;29335;50.526;30.458;2022-10-31T03:49:25;10.00;96.10
42835;DHT22;29335;50.526;30.458;2022-10-31T03:52:09;9.90;95.90
42835;DHT22;29335;50.526;30.458;2022-10-31T03:54:43;9.70;95.80
42835;DHT22;29335;50.526;30.458;2022-10-31T03:59:48;9.60;95.90
42835;DHT22;29335;50.526;30.458;2022-10-31T04:02:18;9.60;95.80
42835;DHT22;29335;50.526;30.458;2022-10-31T04:04:45;9.50;95.90
42835;DHT22;29335;50.526;30.458;2022-10-31T04:07:13;9.50;95.90
42835;DHT22;29335;50.526;30.458;2022-10-31T04:09:42;9.30;96.40
42835;DHT22;29335;50.526;30.458;2022-10-31T04:12:11;9.50;96.10
42835;DHT22;29335;50.526;30.458;2022-10-31T04:14:41;9.40;96.50
42835;DHT22;29335;50.526;30.458;2022-10-31T04:17:11;9.50;96.10
42835;DHT22;29335;50.526;30.458;2022-10-31T04:19:38;9.40;96.30
42835;DHT22;29335;50.526;30.458;2022-10-31T04:22:03;9.30;96.50
42835;DHT22;29335;50.526;30.458;2022-10-31T04:24:29;9.40;96.30
42835;DHT22;29335;50.526;30.458;2022-10-31T04:26:55;9.50;96.50
42835;DHT22;29335;50.526;30.458;2022-10-31T04:29:20;9.10;96.80
42835;DHT22;29335;50.526;30.458;2022-10-31T04:31:46;9.10;97.00
42835;DHT22;29335;50.526;30.458;2022-10-31T04:34:11;9.00;97.10
42835;DHT22;29335;50.526;30.458;2022-10-31T04:36:37;9.30;96.80
42835;DHT22;29335;50.526;30.458;2022-10-31T04:39:02;9.30;96.30
42835;DHT22;29335;50.526;30.458;2022-10-31T04:41:28;9.00;96.80
42835;DHT22;29335;50.526;30.458;2022-10-31T04:43:54;9.00;96.30
42835;DHT22;29335;50.526;30.458;2022-10-31T04:46:19;8.90;96.60
42835;DHT22;29335;50.526;30.458;2022-10-31T04:48:45;8.90;96.40
42835;DHT22;29335;50.526;30.458;2022-10-31T04:51:11;8.80;96.50
42835;DHT22;29335;50.526;30.458;2022-10-31T04:53:37;8.70;96.40
42835;DHT22;29335;50.526;30.458;2022-10-31T04:56:02;8.80;96.40
42835;DHT22;29335;50.526;30.458;2022-10-31T04:58:28;8.90;95.80
42835;DHT22;29335;50.526;30.458;2022-10-31T05:00:55;8.70;96.20
42835;DHT22;29335;50.526;30.458;2022-10-31T05:03:21;8.70;96.00
42835;DHT22;29335;50.526;30.458;2022-10-31T05:05:47;9.10;96.20
42835;DHT22;29335;50.526;30.458;2022-10-31T05:08:13;8.50;96.10
42835;DHT22;29335;50.526;30.458;2022-10-31T05:10:39;8.50;96.00
42835;DHT22;29335;50.526;30.458;2022-10-31T05:13:05;8.40;96.00
42835;DHT22;29335;50.526;30.458;2022-10-31T05:15:31;8.50;95.90
42835;DHT22;29335;50.526;30.458;2022-10-31T05:17:57;8.40;95.80
42835;DHT22;29335;50.526;30.458;2022-10-31T05:20:28;8.50;95.90
42835;DHT22;29335;50.526;30.458;2022-10-31T05:22:55;8.50;95.60
42835;DHT22;29335;50.526;30.458;2022-10-31T05:25:23;8.50;95.60
42835;DHT22;29335;50.526;30.458;2022-10-31T05:27:50;8.60;95.60
42835;DHT22;29335;50.526;30.458;2022-10-31T05:30:18;8.30;95.80
42835;DHT22;29335;50.526;30.458;2022-10-31T05:32:46;9.10;95.70
42835;DHT22;29335;50.526;30.458;2022-10-31T05:35:17;8.40;95.70
42835;DHT22;29335;50.526;30.458;2022-10-31T05:37:43;8.60;95.80
42835;DHT22;29335;50.526;30.458;2022-10-31T05:40:11;8.50;95.80
42835;DHT22;29335;50.526;30.458;2022-10-31T05:42:42;8.50;96.00
42835;DHT22;29335;50.526;30.458;2022-10-31T05:45:09;8.10;96.40
42835;DHT22;29335;50.526;30.458;2022-10-31T05:47:35;8.40;96.10
42835;DHT22;29335;50.526;30.458;2022-10-31T05:50:01;8.40;95.90
42835;DHT22;29335;50.526;30.458;2022-10-31T05:52:26;8.20;96.20
42835;DHT22;29335;50.526;30.458;2022-10-31T05:54:52;10.40;96.60
42835;DHT22;29335;50.526;30.458;2022-10-31T05:57:17;10.90;96.30
42835;DHT22;29335;50.526;30.458;2022-10-31T05:59:43;8.30;95.50
42835;DHT22;29335;50.526;30.458;2022-10-31T06:02:08;8.30;95.70
